Time;durP1;ratioP1;P1;durP2;ratioP2;P2;SDS_P1;SDS_P2;PMS_P1;PMS_P2;Temp;Humidity;BMP_temperature;BMP_pressure;BME280_temperature;BME280_humidity;BME280_pressure;Samples;Min_cycle;Max_cycle;Signal;HPM_P1;HPM_P2
2021/06/07 00:00:50;;;;;;;24.30;19.07;;;;;;;;;;5032598;28;20403;-55
2021/06/07 00:03:16;;;;;;;24.23;18.37;;;;;;;;;;5032138;28;20403;-55
2021/06/07 00:05:42;;;;;;;27.57;19.33;;;;;;;;;;5032778;28;20388;-55
2021/06/07 00:08:08;;;;;;;20.40;17.70;;;;;;;;;;5033110;28;20463;-55
2021/06/07 00:10:34;;;;;;;24.57;17.77;;;;;;;;;;5032739;28;20417;-55
2021/06/07 00:13:00;;;;;;;23.30;19.43;;;;;;;;;;5032524;28;20435;-55
2021/06/07 00:15:27;;;;;;;24.83;18.67;;;;;;;;;;5032702;28;20377;-55
2021/06/07 00:17:53;;;;;;;29.07;21.80;;;;;;;;;;5032822;28;20379;-55
2021/06/07 00:20:28;;;;;;;29.77;21.80;;;;;;;;;;5032464;28;20397;-55
2021/06/07 00:22:55;;;;;;;25.00;19.03;;;;;;;;;;5032444;28;20497;-55
2021/06/07 00:25:21;;;;;;;25.30;20.27;;;;;;;;;;5032405;28;20416;-55
2021/06/07 00:27:46;;;;;;;24.57;19.73;;;;;;;;;;5032571;28;20385;-55
2021/06/07 00:30:13;;;;;;;31.73;20.10;;;;;;;;;;5032357;28;20425;-55
2021/06/07 00:32:39;;;;;;;23.83;19.30;;;;;;;;;;5032054;28;20381;-55
2021/06/07 00:35:05;;;;;;;23.47;19.03;;;;;;;;;;5032233;28;20401;-55
2021/06/07 00:37:31;;;;;;;25.60;19.50;;;;;;;;;;5032349;28;20873;-56
2021/06/07 00:39:57;;;;;;;22.90;19.50;;;;;;;;;;5032187;28;20449;-55
2021/06/07 00:42:23;;;;;;;32.90;22.40;;;;;;;;;;5032074;28;20746;-55
2021/06/07 00:44:49;;;;;;;25.60;20.73;;;;;;;;;;5032302;28;20485;-55
2021/06/07 00:47:15;;;;;;;31.23;21.23;;;;;;;;;;5032034;28;20810;-55
2021/06/07 00:49:41;;;;;;;26.10;19.87;;;;;;;;;;5032275;28;20762;-55
2021/06/07 00:52:07;;;;;;;29.97;22.67;;;;;;;;;;5031728;28;20376;-55
2021/06/07 00:54:33;;;;;;;27.47;21.70;;;;;;;;;;5031850;28;20446;-55
2021/06/07 00:56:59;;;;;;;32.77;21.47;;;;;;;;;;5031862;28;20373;-55
2021/06/07 00:59:25;;;;;;;32.97;24.17;;;;;;;;;;5031939;28;20388;-55
2021/06/07 01:01:51;;;;;;;24.00;21.43;;;;;;;;;;5031027;28;20493;-55
2021/06/07 01:04:17;;;;;;;25.17;21.47;;;;;;;;;;5031316;28;20381;-55
2021/06/07 01:06:43;;;;;;;24.77;20.00;;;;;;;;;;5031265;28;20380;-55
2021/06/07 01:09:09;;;;;;;26.53;20.93;;;;;;;;;;5031642;28;20462;-55
2021/06/07 01:11:35;;;;;;;27.17;20.63;;;;;;;;;;5031509;28;20429;-55
2021/06/07 01:14:02;;;;;;;28.23;20.63;;;;;;;;;;5031456;28;20462;-55
2021/06/07 01:16:28;;;;;;;26.70;20.33;;;;;;;;;;5031774;28;20623;-55
2021/06/07 01:18:54;;;;;;;30.33;21.47;;;;;;;;;;5031535;28;21095;-55
2021/06/07 01:21:25;;;;;;;21.50;19.20;;;;;;;;;;5031652;28;20381;-55
2021/06/07 01:23:53;;;;;;;28.07;21.40;;;;;;;;;;5031451;28;20377;-55
2021/06/07 01:26:19;;;;;;;24.80;19.90;;;;;;;;;;5031568;28;20434;-55
2021/06/07 01:28:46;;;;;;;31.53;22.30;;;;;;;;;;5031303;28;20418;-55
2021/06/07 01:31:13;;;;;;;28.23;20.70;;;;;;;;;;5031464;28;20898;-55
2021/06/07 01:33:40;;;;;;;28.27;21.93;;;;;;;;;;5031157;28;20428;-55
2021/06/07 01:36:07;;;;;;;34.03;22.37;;;;;;;;;;5031779;28;20556;-55
2021/06/07 01:38:33;;;;;;;30.43;21.97;;;;;;;;;;5031320;28;20525;-55
2021/06/07 01:41:04;;;;;;;34.30;21.60;;;;;;;;;;5031635;28;20381;-55
2021/06/07 01:43:31;;;;;;;26.73;20.50;;;;;;;;;;5031010;28;20402;-55
2021/06/07 01:45:57;;;;;;;25.63;21.13;;;;;;;;;;5031391;28;20489;-55
2021/06/07 01:48:24;;;;;;;27.60;21.43;;;;;;;;;;5031030;28;20426;-55
2021/06/07 01:50:51;;;;;;;31.40;22.23;;;;;;;;;;5031206;28;20410;-55
2021/06/07 01:53:17;;;;;;;37.20;23.93;;;;;;;;;;5030602;28;21015;-55
2021/06/07 01:55:45;;;;;;;26.83;20.87;;;;;;;;;;5031045;28;20880;-55
2021/06/07 01:58:11;;;;;;;37.47;21.97;;;;;;;;;;5030691;28;20373;-55
2021/06/07 02:00:48;;;;;;;30.60;20.33;;;;;;;;;;5030958;28;20482;-55
2021/06/07 02:03:16;;;;;;;23.30;19.67;;;;;;;;;;5030607;28;20458;-55
2021/06/07 02:05:43;;;;;;;30.33;20.00;;;;;;;;;;5030871;28;20385;-55
2021/06/07 02:08:11;;;;;;;29.73;21.20;;;;;;;;;;5030784;28;20377;-55
2021/06/07 02:10:42;;;;;;;23.60;20.00;;;;;;;;;;5030632;28;20440;-55
2021/06/07 02:13:08;;;;;;;30.23;21.80;;;;;;;;;;5030460;28;20506;-55
2021/06/07 02:15:34;;;;;;;28.70;20.17;;;;;;;;;;5030637;28;20406;-55
2021/06/07 02:18:07;;;;;;;28.53;21.23;;;;;;;;;;5030716;28;20405;-55
2021/06/07 02:20:34;;;;;;;28.73;21.13;;;;;;;;;;5030543;28;20398;-55
2021/06/07 02:23:00;;;;;;;24.67;20.63;;;;;;;;;;5030419;28;20418;-55
2021/06/07 02:25:26;;;;;;;25.43;21.20;;;;;;;;;;5032258;28;20385;-55
2021/06/07 02:27:52;;;;;;;31.40;20.17;;;;;;;;;;5034837;28;20798;-55
2021/06/07 02:30:19;;;;;;;26.53;20.10;;;;;;;;;;5034570;28;20481;-55
2021/06/07 02:32:45;;;;;;;23.30;18.57;;;;;;;;;;5034406;28;20435;-55
2021/06/07 02:35:13;;;;;;;23.33;20.80;;;;;;;;;;5034530;28;20473;-55
2021/06/07 02:37:39;;;;;;;24.67;19.87;;;;;;;;;;5035129;28;20894;-53
2021/06/07 02:40:10;;;;;;;31.23;20.90;;;;;;;;;;5034427;28;20413;-53
2021/06/07 02:42:37;;;;;;;30.63;21.13;;;;;;;;;;5034432;28;20770;-53
2021/06/07 02:45:04;;;;;;;31.90;20.30;;;;;;;;;;5034460;28;20379;-55
2021/06/07 02:47:30;;;;;;;20.23;17.60;;;;;;;;;;5034600;28;20373;-53
2021/06/07 02:49:56;;;;;;;23.53;19.10;;;;;;;;;;5034625;28;20418;-53
2021/06/07 02:52:22;;;;;;;26.20;19.57;;;;;;;;;;5034365;28;20860;-53
2021/06/07 02:54:48;;;;;;;23.53;19.97;;;;;;;;;;5034403;28;20424;-52
2021/06/07 02:57:14;;;;;;;25.93;19.10;;;;;;;;;;5034445;28;20505;-53
2021/06/07 02:59:40;;;;;;;29.73;22.40;;;;;;;;;;5034165;28;20418;-53
2021/06/07 03:02:06;;;;;;;27.57;20.43;;;;;;;;;;5034115;28;20788;-53
2021/06/07 03:04:32;;;;;;;33.20;22.00;;;;;;;;;;5034168;28;20412;-53
2021/06/07 03:06:58;;;;;;;31.63;23.57;;;;;;;;;;5034041;28;20838;-53
2021/06/07 03:09:24;;;;;;;27.07;20.70;;;;;;;;;;5034124;28;20428;-53
2021/06/07 03:11:50;;;;;;;30.53;22.13;;;;;;;;;;5033766;28;20752;-53
2021/06/07 03:14:16;;;;;;;30.70;22.63;;;;;;;;;;5033897;28;20473;-53
2021/06/07 03:16:42;;;;;;;34.63;23.27;;;;;;;;;;5033889;28;20402;-53
2021/06/07 03:19:08;;;;;;;31.13;23.23;;;;;;;;;;5033841;28;20538;-54
2021/06/07 03:21:34;;;;;;;30.70;22.60;;;;;;;;;;5033409;28;20376;-54
2021/06/07 03:24:00;;;;;;;29.57;21.70;;;;;;;;;;5033760;28;20907;-54
2021/06/07 03:26:26;;;;;;;30.87;22.37;;;;;;;;;;5033732;28;20402;-54
2021/06/07 03:28:52;;;;;;;33.57;22.33;;;;;;;;;;5033678;28;20422;-54
2021/06/07 03:31:18;;;;;;;28.83;21.87;;;;;;;;;;5033343;28;20410;-53
2021/06/07 03:33:44;;;;;;;34.37;21.10;;;;;;;;;;5033393;28;20420;-53
2021/06/07 03:36:10;;;;;;;41.17;22.70;;;;;;;;;;5033109;28;20384;-54
2021/06/07 03:38:36;;;;;;;33.67;22.60;;;;;;;;;;5033433;28;20414;-53
2021/06/07 03:41:02;;;;;;;29.80;20.67;;;;;;;;;;5033385;28;20493;-54
2021/06/07 03:43:29;;;;;;;31.43;21.80;;;;;;;;;;5033215;28;20427;-54
2021/06/07 03:45:55;;;;;;;28.60;21.40;;;;;;;;;;5033269;28;20476;-53
2021/06/07 03:48:22;;;;;;;28.27;21.20;;;;;;;;;;5033248;28;20460;-53
2021/06/07 03:50:48;;;;;;;35.13;22.73;;;;;;;;;;5033070;28;20437;-54
2021/06/07 03:53:14;;;;;;;36.80;23.03;;;;;;;;;;5032929;28;20446;-53
2021/06/07 03:55:40;;;;;;;32.80;21.97;;;;;;;;;;5033221;28;20391;-53
2021/06/07 03:58:07;;;;;;;34.70;24.93;;;;;;;;;;5032977;28;20377;-55
2021/06/07 04:00:34;;;;;;;35.37;23.97;;;;;;;;;;5033112;28;20933;-53
2021/06/07 04:03:02;;;;;;;33.33;22.77;;;;;;;;;;5032664;28;20434;-53
2021/06/07 04:05:28;;;;;;;40.53;25.03;;;;;;;;;;5033028;28;20388;-53
2021/06/07 04:07:55;;;;;;;39.53;24.30;;;;;;;;;;5032969;28;20487;-53
2021/06/07 04:10:22;;;;;;;34.30;24.70;;;;;;;;;;5032916;28;20401;-53
2021/06/07 04:12:48;;;;;;;37.03;25.10;;;;;;;;;;5032457;28;20406;-53
2021/06/07 04:15:16;;;;;;;39.63;24.60;;;;;;;;;;5032888;28;20402;-54
2021/06/07 04:17:42;;;;;;;32.50;24.30;;;;;;;;;;5032652;28;20921;-53
2021/06/07 04:20:09;;;;;;;35.50;23.93;;;;;;;;;;5032698;28;20553;-53
2021/06/07 04:22:35;;;;;;;33.00;21.33;;;;;;;;;;5032359;28;20398;-53
2021/06/07 04:25:01;;;;;;;35.33;23.73;;;;;;;;;;5032636;28;20445;-54
2021/06/07 04:27:27;;;;;;;37.50;24.27;;;;;;;;;;5032537;28;20381;-54
2021/06/07 04:29:53;;;;;;;39.37;24.30;;;;;;;;;;5032545;28;20401;-54
2021/06/07 04:32:19;;;;;;;35.67;24.17;;;;;;;;;;5032065;28;20413;-54
2021/06/07 04:34:45;;;;;;;36.77;23.30;;;;;;;;;;5032229;28;20975;-54
2021/06/07 04:37:11;;;;;;;39.90;24.77;;;;;;;;;;5032271;28;20406;-55
2021/06/07 04:39:37;;;;;;;41.37;25.30;;;;;;;;;;5032355;28;20404;-54
2021/06/07 04:42:04;;;;;;;33.10;22.00;;;;;;;;;;5032006;28;20387;-54
2021/06/07 04:44:30;;;;;;;41.03;25.13;;;;;;;;;;5032277;28;20428;-53
2021/06/07 04:46:56;;;;;;;37.60;24.93;;;;;;;;;;5031983;28;20901;-53
2021/06/07 04:49:22;;;;;;;37.33;25.03;;;;;;;;;;5031610;28;20441;-53
2021/06/07 04:51:48;;;;;;;36.77;23.53;;;;;;;;;;5032051;28;20381;-53
2021/06/07 04:54:14;;;;;;;47.10;26.50;;;;;;;;;;5031998;28;20978;-53
2021/06/07 04:56:40;;;;;;;38.10;26.53;;;;;;;;;;5032161;28;20413;-53
2021/06/07 04:59:06;;;;;;;41.07;25.73;;;;;;;;;;5032420;28;20418;-54
2021/06/07 05:01:32;;;;;;;48.70;26.23;;;;;;;;;;5031772;28;20419;-53
2021/06/07 05:03:58;;;;;;;37.17;26.43;;;;;;;;;;5031784;28;20432;-55
2021/06/07 05:06:24;;;;;;;43.60;27.07;;;;;;;;;;5031930;28;20412;-54
2021/06/07 05:08:50;;;;;;;37.37;25.57;;;;;;;;;;5031639;28;20491;-55
2021/06/07 05:11:16;;;;;;;38.53;25.10;;;;;;;;;;5031616;28;20406;-54
2021/06/07 05:13:42;;;;;;;36.93;25.93;;;;;;;;;;5031489;28;20431;-54
2021/06/07 05:16:10;;;;;;;40.57;26.20;;;;;;;;;;5031697;28;20403;-55
2021/06/07 05:18:36;;;;;;;40.03;24.77;;;;;;;;;;5031451;28;20429;-53
2021/06/07 05:21:02;;;;;;;39.00;23.50;;;;;;;;;;5031687;28;20369;-53
2021/06/07 05:23:28;;;;;;;37.00;25.73;;;;;;;;;;5031253;28;20381;-53
2021/06/07 05:25:54;;;;;;;44.50;28.40;;;;;;;;;;5031552;28;20406;-53
2021/06/07 05:28:20;;;;;;;38.40;26.07;;;;;;;;;;5031288;28;20872;-53
2021/06/07 05:30:47;;;;;;;41.67;26.17;;;;;;;;;;5031421;28;20425;-52
2021/06/07 05:33:13;;;;;;;42.07;28.40;;;;;;;;;;5030850;28;20417;-54
2021/06/07 05:35:41;;;;;;;38.33;28.80;;;;;;;;;;5031313;28;20977;-53
2021/06/07 05:38:07;;;;;;;40.63;27.50;;;;;;;;;;5031038;28;20861;-54
2021/06/07 05:40:34;;;;;;;44.37;28.17;;;;;;;;;;5031266;28;20448;-53
2021/06/07 05:43:00;;;;;;;39.83;27.23;;;;;;;;;;5030899;28;20512;-55
2021/06/07 05:45:27;;;;;;;43.37;26.60;;;;;;;;;;5031031;28;20467;-52
2021/06/07 05:47:56;;;;;;;40.90;26.97;;;;;;;;;;5031098;28;20402;-53
2021/06/07 05:50:22;;;;;;;42.23;29.23;;;;;;;;;;5029595;28;20507;-55
2021/06/07 05:52:49;;;;;;;39.60;28.10;;;;;;;;;;5030774;28;20400;-53
2021/06/07 05:55:29;;;;;;;46.03;28.53;;;;;;;;;;5030916;28;20862;-53
2021/06/07 05:57:57;;;;;;;42.40;29.33;;;;;;;;;;5031025;28;20435;-53
2021/06/07 06:00:26;;;;;;;47.43;30.70;;;;;;;;;;5030758;28;20426;-54
2021/06/07 06:02:52;;;;;;;56.67;30.40;;;;;;;;;;5030632;28;20834;-53
2021/06/07 06:05:18;;;;;;;42.90;28.90;;;;;;;;;;5030761;28;20960;-53
2021/06/07 06:07:45;;;;;;;42.30;29.60;;;;;;;;;;5030899;28;20757;-52
2021/06/07 06:10:11;;;;;;;42.43;28.70;;;;;;;;;;5030525;28;20422;-54
2021/06/07 06:12:38;;;;;;;52.53;31.57;;;;;;;;;;5030521;28;20395;-55
2021/06/07 06:15:04;;;;;;;44.03;27.70;;;;;;;;;;5030513;28;20433;-54
2021/06/07 06:17:30;;;;;;;48.50;30.83;;;;;;;;;;5030740;28;20402;-53
2021/06/07 06:19:56;;;;;;;43.07;30.40;;;;;;;;;;5030556;28;20764;-53
2021/06/07 06:22:22;;;;;;;49.70;31.10;;;;;;;;;;5030518;28;20385;-53
2021/06/07 06:24:48;;;;;;;50.13;31.53;;;;;;;;;;5030518;28;20392;-54
2021/06/07 06:27:15;;;;;;;45.17;29.33;;;;;;;;;;5030756;28;20413;-54
2021/06/07 06:29:41;;;;;;;52.63;32.50;;;;;;;;;;5030515;28;20426;-53
2021/06/07 06:32:09;;;;;;;54.70;33.17;;;;;;;;;;5030477;28;20373;-53
2021/06/07 06:34:35;;;;;;;51.63;31.20;;;;;;;;;;5030337;28;20477;-53
2021/06/07 06:37:01;;;;;;;50.67;32.87;;;;;;;;;;5030587;28;20392;-53
2021/06/07 06:39:27;;;;;;;51.10;32.03;;;;;;;;;;5030439;28;20418;-56
2021/06/07 06:41:53;;;;;;;60.20;35.80;;;;;;;;;;5030322;28;20399;-54
2021/06/07 06:44:19;;;;;;;55.00;34.60;;;;;;;;;;5030472;28;20384;-53
2021/06/07 06:46:45;;;;;;;54.40;33.10;;;;;;;;;;5030345;28;20381;-53
2021/06/07 06:49:11;;;;;;;50.47;32.67;;;;;;;;;;5030415;28;20392;-53
2021/06/07 06:51:37;;;;;;;48.53;30.30;;;;;;;;;;5030187;28;20398;-53
2021/06/07 06:54:03;;;;;;;50.30;32.03;;;;;;;;;;5030207;28;20438;-54
2021/06/07 06:56:29;;;;;;;51.70;33.27;;;;;;;;;;5030298;28;20442;-52
2021/06/07 06:58:55;;;;;;;56.20;33.87;;;;;;;;;;5030344;28;20422;-53
2021/06/07 07:01:22;;;;;;;61.17;33.90;;;;;;;;;;5029993;28;20412;-53
2021/06/07 07:03:50;;;;;;;53.20;31.80;;;;;;;;;;5030238;28;20494;-53
2021/06/07 07:06:16;;;;;;;61.77;35.67;;;;;;;;;;5030255;28;20385;-53
2021/06/07 07:08:42;;;;;;;68.23;36.53;;;;;;;;;;5030282;28;20408;-52
2021/06/07 07:11:09;;;;;;;55.20;33.53;;;;;;;;;;5031553;28;20746;-53
2021/06/07 07:13:36;;;;;;;61.83;34.50;;;;;;;;;;5033676;28;20442;-53
2021/06/07 07:16:02;;;;;;;60.40;35.73;;;;;;;;;;5033805;28;20371;-52
2021/06/07 07:18:27;;;;;;;52.83;34.27;;;;;;;;;;5032624;28;20789;-53
2021/06/07 07:20:53;;;;;;;52.30;31.50;;;;;;;;;;5033701;28;20499;-53
2021/06/07 07:23:20;;;;;;;54.03;36.00;;;;;;;;;;5033508;28;20601;-53
2021/06/07 07:25:47;;;;;;;58.20;35.70;;;;;;;;;;5033618;28;20445;-53
2021/06/07 07:28:13;;;;;;;60.93;36.27;;;;;;;;;;5033684;28;20467;-53
2021/06/07 07:30:39;;;;;;;56.63;33.50;;;;;;;;;;5033572;28;20452;-53
2021/06/07 07:33:06;;;;;;;56.03;35.10;;;;;;;;;;5033548;28;20392;-54
2021/06/07 07:35:33;;;;;;;56.50;33.97;;;;;;;;;;5033569;28;20389;-53
2021/06/07 07:37:59;;;;;;;57.53;35.77;;;;;;;;;;5033533;28;20815;-53
2021/06/07 07:40:25;;;;;;;53.60;35.67;;;;;;;;;;5033651;28;20458;-53
2021/06/07 07:42:55;;;;;;;56.80;36.30;;;;;;;;;;5033289;28;20384;-53
2021/06/07 07:45:24;;;;;;;52.87;35.37;;;;;;;;;;5033533;28;20403;-53
2021/06/07 07:47:50;;;;;;;58.37;35.27;;;;;;;;;;5033392;28;20402;-56
2021/06/07 07:50:17;;;;;;;47.20;32.53;;;;;;;;;;5033269;28;20451;-55
2021/06/07 07:52:44;;;;;;;50.40;34.43;;;;;;;;;;5033069;28;20460;-53
2021/06/07 07:55:11;;;;;;;47.43;32.27;;;;;;;;;;5033211;28;20428;-54
2021/06/07 07:57:38;;;;;;;47.40;30.57;;;;;;;;;;5033116;28;20434;-52
2021/06/07 08:00:05;;;;;;;44.33;32.00;;;;;;;;;;5033100;28;20425;-55
2021/06/07 08:02:31;;;;;;;54.10;33.73;;;;;;;;;;5032705;28;20409;-52
2021/06/07 08:04:57;;;;;;;46.57;31.70;;;;;;;;;;5033012;28;20423;-52
2021/06/07 08:07:23;;;;;;;50.33;34.67;;;;;;;;;;5033231;28;20417;-53
2021/06/07 08:09:50;;;;;;;47.97;31.20;;;;;;;;;;5032767;28;20475;-53
2021/06/07 08:12:16;;;;;;;43.57;31.17;;;;;;;;;;5032559;28;20410;-55
2021/06/07 08:14:42;;;;;;;45.07;30.63;;;;;;;;;;5032702;28;20515;-55
2021/06/07 08:17:10;;;;;;;40.73;30.03;;;;;;;;;;5032710;28;20457;-54
2021/06/07 08:19:36;;;;;;;37.70;29.60;;;;;;;;;;5035051;28;20486;-55
2021/06/07 08:22:02;;;;;;;38.83;28.93;;;;;;;;;;5045026;28;20465;-55
2021/06/07 08:24:28;;;;;;;41.40;30.67;;;;;;;;;;5036597;28;20788;-55
2021/06/07 08:26:54;;;;;;;48.00;30.10;;;;;;;;;;5036499;28;20406;-55
2021/06/07 08:29:20;;;;;;;39.70;29.67;;;;;;;;;;5035671;28;20516;-54
2021/06/07 08:31:46;;;;;;;40.70;29.90;;;;;;;;;;5035629;28;20427;-55
2021/06/07 08:34:12;;;;;;;45.50;31.33;;;;;;;;;;5035443;28;20436;-55
2021/06/07 08:36:38;;;;;;;48.37;31.77;;;;;;;;;;5035120;28;20468;-56
2021/06/07 08:39:05;;;;;;;43.13;30.83;;;;;;;;;;5033094;28;21014;-53
2021/06/07 08:41:32;;;;;;;47.40;30.53;;;;;;;;;;5032055;28;20807;-54
2021/06/07 08:43:58;;;;;;;52.33;30.67;;;;;;;;;;5032071;28;20431;-53
2021/06/07 08:46:24;;;;;;;34.37;28.60;;;;;;;;;;5032387;28;20737;-54
2021/06/07 08:48:50;;;;;;;34.30;27.80;;;;;;;;;;5031952;28;20438;-52
2021/06/07 08:51:16;;;;;;;38.47;28.57;;;;;;;;;;5031941;28;20406;-53
2021/06/07 08:53:42;;;;;;;34.43;28.20;;;;;;;;;;5031749;28;20454;-54
2021/06/07 08:56:08;;;;;;;33.10;25.90;;;;;;;;;;5030819;28;20937;-54
2021/06/07 08:58:35;;;;;;;37.33;27.70;;;;;;;;;;5031630;28;20938;-54
2021/06/07 09:01:01;;;;;;;34.27;27.13;;;;;;;;;;5030569;28;20398;-56
2021/06/07 09:03:34;;;;;;;29.13;24.87;;;;;;;;;;5031568;28;20501;-54
2021/06/07 09:06:00;;;;;;;28.77;23.60;;;;;;;;;;5031977;28;20402;-54
2021/06/07 09:08:33;;;;;;;27.80;22.40;;;;;;;;;;5031941;28;20926;-53
2021/06/07 09:11:05;;;;;;;26.27;21.50;;;;;;;;;;5043511;28;20963;-55
2021/06/07 09:13:31;;;;;;;22.60;20.30;;;;;;;;;;5050076;28;21097;-53
2021/06/07 09:15:59;;;;;;;23.97;20.40;;;;;;;;;;5051449;28;20485;-53
2021/06/07 09:18:38;;;;;;;20.63;18.50;;;;;;;;;;5051492;28;20905;-53
2021/06/07 09:21:04;;;;;;;22.33;19.47;;;;;;;;;;5051832;28;20394;-53
2021/06/07 09:23:45;;;;;;;22.13;17.83;;;;;;;;;;5051554;28;20394;-53
2021/06/07 09:26:26;;;;;;;21.47;17.77;;;;;;;;;;5051606;28;20401;-53
2021/06/07 09:28:54;;;;;;;19.60;17.20;;;;;;;;;;5051662;28;20429;-53
2021/06/07 09:31:25;;;;;;;20.57;18.10;;;;;;;;;;5051418;28;20423;-54
2021/06/07 09:33:51;;;;;;;19.20;16.87;;;;;;;;;;5050829;28;20494;-53
2021/06/07 09:36:36;;;;;;;17.73;15.87;;;;;;;;;;5051138;28;20405;-54
2021/06/07 09:39:18;;;;;;;18.67;16.67;;;;;;;;;;5051219;28;20784;-54
2021/06/07 09:42:00;;;;;;;18.27;15.27;;;;;;;;;;5050882;28;20397;-53
2021/06/07 09:44:27;;;;;;;19.50;17.10;;;;;;;;;;5051060;28;20401;-52
2021/06/07 09:47:05;;;;;;;19.27;17.27;;;;;;;;;;5051265;28;20401;-52
2021/06/07 09:49:36;;;;;;;16.27;13.23;;;;;;;;;;5051115;28;20959;-53
2021/06/07 09:52:03;;;;;;;15.37;13.83;;;;;;;;;;5050840;28;20462;-54
2021/06/07 09:54:29;;;;;;;16.27;14.73;;;;;;;;;;5050821;28;20449;-53
2021/06/07 09:56:56;;;;;;;15.80;13.73;;;;;;;;;;5050739;28;20405;-54
2021/06/07 09:59:44;;;;;;;20.90;16.90;;;;;;;;;;5050702;28;20971;-53
2021/06/07 10:02:14;;;;;;;17.13;15.53;;;;;;;;;;5050521;28;20368;-53
2021/06/07 10:05:09;;;;;;;17.43;15.73;;;;;;;;;;5050745;28;20425;-53
2021/06/07 10:07:36;;;;;;;15.23;13.83;;;;;;;;;;5045990;28;20446;-53
2021/06/07 10:10:14;;;;;;;16.23;13.77;;;;;;;;;;5050651;28;20464;-55
2021/06/07 10:12:41;;;;;;;15.37;13.77;;;;;;;;;;5050279;28;20415;-53
2021/06/07 10:15:08;;;;;;;17.80;15.93;;;;;;;;;;5050681;28;20495;-53
2021/06/07 10:17:35;;;;;;;18.67;15.80;;;;;;;;;;5050840;28;20402;-53
2021/06/07 10:22:37;;;;;;;15.10;13.30;;;;;;;;;;5050608;28;20501;-53
2021/06/07 10:25:24;;;;;;;16.13;14.43;;;;;;;;;;5050543;28;20408;-54
2021/06/07 10:27:50;;;;;;;15.43;13.40;;;;;;;;;;5050553;28;20405;-53
2021/06/07 10:30:19;;;;;;;14.60;12.90;;;;;;;;;;5050424;28;20421;-53
2021/06/07 10:32:45;;;;;;;14.50;12.53;;;;;;;;;;5050139;28;20463;-54
2021/06/07 10:35:12;;;;;;;15.57;12.40;;;;;;;;;;5050211;28;20456;-54
2021/06/07 10:38:18;;;;;;;14.33;12.83;;;;;;;;;;5050613;28;20492;-52
2021/06/07 10:40:47;;;;;;;15.07;11.80;;;;;;;;;;5027943;28;20504;-53
2021/06/07 10:43:14;;;;;;;13.90;12.50;;;;;;;;;;5027739;28;21009;-53
2021/06/07 10:45:41;;;;;;;13.73;12.20;;;;;;;;;;5039773;28;20485;-54
2021/06/07 10:48:08;;;;;;;13.53;11.90;;;;;;;;;;5054426;28;20852;-53
2021/06/07 10:50:37;;;;;;;13.53;11.90;;;;;;;;;;5054538;28;20383;-52
2021/06/07 10:53:05;;;;;;;13.83;12.53;;;;;;;;;;5054301;28;20463;-53
2021/06/07 10:55:33;;;;;;;15.07;13.67;;;;;;;;;;5054159;28;20852;-52
2021/06/07 10:58:00;;;;;;;14.33;12.87;;;;;;;;;;5054349;28;20376;-53
2021/06/07 11:00:29;;;;;;;14.27;12.87;;;;;;;;;;5054240;28;20421;-53
2021/06/07 11:02:57;;;;;;;13.20;11.43;;;;;;;;;;5053937;28;20399;-52
2021/06/07 11:05:28;;;;;;;17.20;13.60;;;;;;;;;;5053944;28;20376;-53
2021/06/07 11:08:09;;;;;;;13.43;12.13;;;;;;;;;;5054186;28;20420;-52
2021/06/07 11:10:40;;;;;;;13.17;11.47;;;;;;;;;;5053818;28;20376;-53
2021/06/07 11:13:26;;;;;;;12.97;11.77;;;;;;;;;;5053623;28;20463;-52
2021/06/07 11:15:59;;;;;;;14.50;11.93;;;;;;;;;;5053741;28;20498;-53
2021/06/07 11:18:30;;;;;;;12.73;11.50;;;;;;;;;;5053784;28;20437;-52
2021/06/07 11:21:08;;;;;;;12.63;11.40;;;;;;;;;;5053849;28;20405;-53
2021/06/07 11:23:38;;;;;;;11.50;10.50;;;;;;;;;;5053503;28;20751;-52
2021/06/07 11:26:05;;;;;;;12.50;11.20;;;;;;;;;;5053550;28;20884;-53
2021/06/07 11:28:31;;;;;;;13.73;12.03;;;;;;;;;;5053557;28;20453;-53
2021/06/07 11:30:58;;;;;;;14.83;13.43;;;;;;;;;;5053435;28;20469;-53
2021/06/07 11:33:24;;;;;;;12.90;11.10;;;;;;;;;;5053220;28;20436;-52
2021/06/07 11:35:50;;;;;;;12.43;11.13;;;;;;;;;;5053485;28;20434;-54
2021/06/07 11:38:35;;;;;;;10.13;9.07;;;;;;;;;;5053348;28;20376;-52
2021/06/07 11:41:03;;;;;;;8.93;8.23;;;;;;;;;;5053388;28;20404;-52
2021/06/07 11:43:49;;;;;;;10.40;9.40;;;;;;;;;;5052983;28;20454;-54
2021/06/07 11:46:41;;;;;;;13.60;9.60;;;;;;;;;;5049332;28;20418;-54
2021/06/07 11:49:17;;;;;;;9.80;8.90;;;;;;;;;;5044548;28;20433;-54
2021/06/07 11:51:57;;;;;;;9.70;8.53;;;;;;;;;;5052980;28;20803;-54
2021/06/07 11:54:29;;;;;;;11.50;10.33;;;;;;;;;;5052959;28;20489;-53
2021/06/07 11:56:56;;;;;;;12.90;10.30;;;;;;;;;;5053032;28;20429;-54
2021/06/07 11:59:26;;;;;;;9.83;8.93;;;;;;;;;;5052893;28;20392;-53
2021/06/07 12:01:52;;;;;;;12.53;10.60;;;;;;;;;;5052909;28;20376;-53
2021/06/07 12:04:28;;;;;;;13.17;9.60;;;;;;;;;;5052679;28;20405;-53
2021/06/07 12:07:01;;;;;;;12.50;9.77;;;;;;;;;;5053010;28;20367;-54
2021/06/07 12:09:27;;;;;;;12.00;9.60;;;;;;;;;;5052729;28;20432;-53
2021/06/07 12:11:53;;;;;;;10.20;9.20;;;;;;;;;;5052811;28;20955;-53
2021/06/07 12:14:27;;;;;;;9.37;8.47;;;;;;;;;;5052600;28;20972;-56
2021/06/07 12:16:53;;;;;;;11.93;9.37;;;;;;;;;;5052784;28;20379;-53
2021/06/07 12:19:19;;;;;;;12.83;8.97;;;;;;;;;;5052772;28;20396;-53
2021/06/07 12:21:45;;;;;;;11.23;7.90;;;;;;;;;;5052747;28;20456;-53
2021/06/07 12:24:15;;;;;;;10.50;8.30;;;;;;;;;;5052389;28;20379;-53
2021/06/07 12:29:27;;;;;;;11.33;8.13;;;;;;;;;;5052602;28;20420;-53
2021/06/07 12:32:05;;;;;;;8.80;8.10;;;;;;;;;;5052358;28;20735;-53
2021/06/07 12:34:31;;;;;;;11.80;9.10;;;;;;;;;;5052119;28;20461;-53
2021/06/07 12:36:57;;;;;;;9.00;8.17;;;;;;;;;;5052393;28;20412;-53
2021/06/07 12:39:23;;;;;;;8.07;7.43;;;;;;;;;;5052248;28;20467;-53
2021/06/07 12:41:50;;;;;;;9.27;8.40;;;;;;;;;;5051885;28;20394;-53
2021/06/07 12:44:21;;;;;;;8.70;6.93;;;;;;;;;;5052151;28;20451;-53
2021/06/07 12:46:47;;;;;;;9.50;8.70;;;;;;;;;;5052079;28;20932;-53
2021/06/07 12:49:22;;;;;;;9.97;9.00;;;;;;;;;;5050758;28;20421;-53
2021/06/07 12:51:58;;;;;;;13.27;10.03;;;;;;;;;;5051782;28;20393;-53
2021/06/07 12:54:24;;;;;;;10.70;9.00;;;;;;;;;;5051727;28;20446;-53
2021/06/07 12:56:50;;;;;;;13.17;9.83;;;;;;;;;;5051796;28;20451;-52
2021/06/07 12:59:16;;;;;;;12.50;9.30;;;;;;;;;;5051947;28;20563;-53
2021/06/07 13:01:47;;;;;;;9.63;7.90;;;;;;;;;;5051583;28;20393;-53
2021/06/07 13:04:16;;;;;;;13.17;8.30;;;;;;;;;;5051796;28;20398;-53
2021/06/07 13:06:43;;;;;;;9.53;8.60;;;;;;;;;;5051604;28;20405;-54
2021/06/07 13:09:11;;;;;;;12.10;9.00;;;;;;;;;;5051009;28;20415;-53
2021/06/07 13:11:38;;;;;;;9.13;8.43;;;;;;;;;;5050167;28;20752;-54
2021/06/07 13:14:09;;;;;;;10.50;9.43;;;;;;;;;;5051549;28;20960;-54
2021/06/07 13:16:40;;;;;;;8.90;8.00;;;;;;;;;;5051628;28;20488;-53
2021/06/07 13:19:07;;;;;;;9.43;8.63;;;;;;;;;;5050865;28;20409;-53
2021/06/07 13:21:52;;;;;;;9.50;8.80;;;;;;;;;;5051182;28;20368;-54
2021/06/07 13:24:25;;;;;;;12.73;9.37;;;;;;;;;;5051370;28;20444;-53
2021/06/07 13:26:52;;;;;;;10.07;9.17;;;;;;;;;;5051469;28;20401;-53
2021/06/07 13:29:23;;;;;;;14.03;9.87;;;;;;;;;;5051162;28;20774;-53
2021/06/07 13:32:12;;;;;;;10.93;10.00;;;;;;;;;;5051022;28;20543;-53
2021/06/07 13:34:38;;;;;;;11.77;10.77;;;;;;;;;;5051110;28;20551;-53
2021/06/07 13:37:04;;;;;;;11.33;10.33;;;;;;;;;;5050022;28;20912;-53
2021/06/07 13:39:30;;;;;;;11.40;10.20;;;;;;;;;;5051068;28;20496;-53
2021/06/07 13:41:56;;;;;;;11.90;10.80;;;;;;;;;;5051139;28;20397;-52
2021/06/07 13:44:23;;;;;;;10.07;9.17;;;;;;;;;;5050918;28;20778;-52
2021/06/07 13:46:59;;;;;;;9.33;8.43;;;;;;;;;;5051217;28;20413;-53
2021/06/07 13:49:25;;;;;;;10.00;9.10;;;;;;;;;;5050913;28;20424;-53
2021/06/07 13:51:51;;;;;;;9.20;8.40;;;;;;;;;;5050788;28;20397;-52
2021/06/07 13:54:17;;;;;;;8.80;7.90;;;;;;;;;;5049303;28;20540;-53
2021/06/07 13:56:43;;;;;;;9.23;8.40;;;;;;;;;;5050942;28;20451;-53
2021/06/07 13:59:22;;;;;;;8.50;7.70;;;;;;;;;;5050897;28;20421;-53
2021/06/07 14:01:49;;;;;;;8.20;7.43;;;;;;;;;;5050612;28;21055;-52
2021/06/07 14:04:15;;;;;;;14.33;8.77;;;;;;;;;;5050851;28;20432;-54
2021/06/07 14:06:42;;;;;;;8.40;7.60;;;;;;;;;;5050629;28;20413;-53
2021/06/07 14:09:13;;;;;;;13.70;8.17;;;;;;;;;;5050640;28;20851;-54
2021/06/07 14:11:46;;;;;;;8.03;6.40;;;;;;;;;;5050433;28;20772;-54
2021/06/07 14:14:13;;;;;;;7.30;6.60;;;;;;;;;;5050578;28;20531;-53
2021/06/07 14:16:39;;;;;;;12.20;7.80;;;;;;;;;;5050571;28;20407;-53
2021/06/07 14:19:05;;;;;;;9.50;8.50;;;;;;;;;;5050684;28;20421;-54
2021/06/07 14:21:44;;;;;;;10.90;8.17;;;;;;;;;;5049346;28;20402;-53
2021/06/07 14:26:55;;;;;;;10.80;9.63;;;;;;;;;;5050562;28;20915;-52
2021/06/07 14:29:21;;;;;;;11.57;10.37;;;;;;;;;;5050520;28;20424;-53
2021/06/07 14:31:50;;;;;;;11.70;10.70;;;;;;;;;;5050269;28;20383;-53
2021/06/07 14:34:16;;;;;;;16.63;10.87;;;;;;;;;;5048993;28;20465;-53